Tuesday, January 23, 2018, 7:15 AM EST
Back to Local

KBOS, Boston Logan International

Location: Boston, MA, United States Lat: 42.367
Local Time: 7:15 AM EST (12:15 GMT) Lon: -71.017
Time Zone: US/Eastern Elev: 19 ft

Show me the last for .
Show Coded

Time T Td Feel RH Dir Speed Gust Alt SLP Vis Weather Sky Remarks
2018-01-23 06:54 32 32 27 100 360° 5 - 29.98 29.98 0 FG VV003 1-hr Precip Total: Trace
6-hr Precip Total (7am): 0.00"
24-hr Precip Total (7am): 0.06"
6-hr Min Temp (7am): 32.0°F
6-hr Max Temp (7am): 39.0°F
2018-01-23 05:54 32 32 26 100 10° 6 - 29.98 29.98 0 FG OVC002 1-hr Precip Total: Trace
2018-01-23 04:54 33 33 26 100 50° 8 - 30.01 30.00 0 DZ BR VV002 1-hr Precip Total: Trace
2018-01-23 04:15 33 33 26 100 360° 8 - 30.04 - 0 DZ BR OVC002 1-hr Precip Total: Trace
2018-01-23 03:54 34 33 27 96 360° 9 - 30.05 30.04 1 -DZ BR OVC002 1-hr Precip Total: Trace
6-hr Precip Total (4am): 0.00"
2018-01-23 03:03 35 34 29 95 10° 8 - 30.07 - 1 -DZ BR OVC002 1-hr Precip Total: Trace
2018-01-23 02:54 35 35 29 100 360° 8 - 30.08 30.08 2 -DZ BR OVC002 1-hr Precip Total: Trace
2018-01-23 02:52 36 36 29 100 10° 9 - 30.08 - 2 -DZ BR OVC002 1-hr Precip Total: Trace
2018-01-23 02:19 38 37 33 96 20° 7 - 30.11 - 1 -DZ BR OVC004 1-hr Precip Total: Trace
2018-01-23 02:06 39 38 34 95 40° 7 - 30.11 - 2 -DZ BR OVC006 1-hr Precip Total: Trace
2018-01-23 01:54 39 39 34 100 40° 7 - 30.11 30.11 3 -DZ BR OVC007 1-hr Precip Total: Trace
2018-01-23 01:12 39 38 34 95 30° 7 - 30.13 - 7 -DZ OVC008 1-hr Precip Total: Trace
2018-01-23 00:54 39 38 34 95 20° 7 - 30.13 30.13 2 -DZ BR OVC007 1-hr Precip Total: Trace
6-hr Precip Total (1am): 0.01"
6-hr Min Temp (1am): 37.9°F
6-hr Max Temp (1am): 39.0°F
2018-01-22 23:54 39 39 35 100 50° 6 - 30.15 30.14 2 -DZ BR OVC006 1-hr Precip Total: Trace
24-hr Min Temp (12am): 34.0°F
24-hr Max Temp (12am): 39.0°F
2018-01-22 22:54 38 38 34 100 70° 5 - 30.18 30.17 2 -DZ BR OVC005 1-hr Precip Total: Trace
2018-01-22 22:34 38 38 33 100 80° 7 - 30.18 - 2 -DZ BR OVC005 1-hr Precip Total: Trace
2018-01-22 21:54 38 38 33 100 80° 6 - 30.20 30.19 3 -DZ BR BKN005 OVC009 1-hr Precip Total: 0.01"
6-hr Precip Total (10pm): 0.01"
2018-01-22 21:06 39 38 36 95 60° 5 - 30.22 - 3 -RA BR SCT005 OVC009 1-hr Precip Total: 0.01"
2018-01-22 20:54 38 38 34 100 50° 5 - 30.22 30.22 2 -RA BR FEW005 OVC009 1-hr Precip Total: Trace
2018-01-22 20:13 38 38 33 100 90° 6 - 30.24 - 3 -RA BR FEW005 OVC009 1-hr Precip Total: Trace
2018-01-22 19:54 39 38 34 95 100° 7 - 30.25 30.24 3 BR FEW005 OVC013 None
2018-01-22 18:54 39 38 33 95 50° 9 - 30.26 30.26 3 BR FEW005 OVC014 None
2018-01-22 17:54 38 37 30 96 50° 12 - 30.27 30.27 3 BR BKN005 OVC020 1-hr Precip Total: Trace
2018-01-22 17:24 38 37 31 96 40° 10 - 30.27 - 3 -DZ BR BKN004 OVC020 1-hr Precip Total: Trace
2018-01-22 17:11 38 37 30 96 30° 12 - 30.27 - 3 -RA BR BKN005 OVC021 1-hr Precip Total: Trace
2018-01-22 16:54 38 37 30 96 40° 12 - 30.26 30.25 3 BR FEW005 OVC024 None
2018-01-22 15:54 38 36 33 92 20° 7 - 30.27 30.26 3 BR FEW014 OVC023 None
2018-01-22 14:54 38 36 31 92 50° 9 - 30.26 30.25 5 BR OVC021 None
2018-01-22 13:54 38 36 34 92 10° 5 - 30.28 30.27 4 BR OVC021 None
2018-01-22 13:30 37 36 32 95 30° 6 - 30.26 - 3 BR OVC019 None
2018-01-22 12:54 37 36 31 95 30° 8 - 30.26 30.26 2 BR SCT012 OVC019 6-hr Precip Total (1pm): 0.05"
6-hr Min Temp (1pm): 35.1°F
6-hr Max Temp (1pm): 37.0°F
2018-01-22 12:47 37 36 32 95 20° 6 - 30.27 - 2 BR SCT012 OVC019 None
2018-01-22 12:22 37 35 33 92 10° 5 - 30.28 - 3 BR BKN012 OVC020 None
2018-01-22 12:00 36 35 32 96 40° 5 - 30.27 - 3 BR FEW005 SCT012 OVC023 None
2018-01-22 11:54 36 35 33 96 60° 3 - 30.27 30.27 2 BR FEW005 BKN012 OVC022 1-hr Precip Total: Trace
2018-01-22 11:52 36 36 32 100 70° 5 - 30.27 - 2 BR FEW005 BKN012 OVC022 1-hr Precip Total: Trace
2018-01-22 10:59 36 35 - 96 - Calm - 30.29 - 1 -RA BR FEW005 OVC011 1-hr Precip Total: Trace
2018-01-22 10:54 36 35 - 96 - Calm - 30.30 30.29 2 -RA BR OVC011 1-hr Precip Total: 0.02"
2018-01-22 10:41 36 35 - 96 - Calm - 30.30 - 2 -RA BR OVC013 1-hr Precip Total: 0.02"
2018-01-22 09:54 36 35 33 96 120° 3 - 30.30 30.30 2 -RA BR OVC019 1-hr Precip Total: 0.02"
6-hr Precip Total (10am): 0.03"
2018-01-22 07:54 35 33 - 92 - Calm - 30.25 30.25 4 -RA BR OVC029 1-hr Precip Total: Trace
2018-01-22 07:36 36 34 33 92 150° 3 - 30.24 - 6 -RA BR OVC029 1-hr Precip Total: Trace

Support USWX by starting your Amazon purchase here.